sensor_id;sensor_type;location;lat;lon;timestamp;P1;durP1;ratioP1;P2;durP2;ratioP2
22363;SDS011;11349;53.412;-1.328;2022-07-11T00:01:43;4.70;;;2.25;;
22363;SDS011;11349;53.412;-1.328;2022-07-11T00:04:08;4.97;;;1.77;;
22363;SDS011;11349;53.412;-1.328;2022-07-11T00:06:34;3.67;;;1.65;;
22363;SDS011;11349;53.412;-1.328;2022-07-11T00:09:00;3.58;;;2.00;;
22363;SDS011;11349;53.412;-1.328;2022-07-11T00:11:26;4.88;;;1.88;;
22363;SDS011;11349;53.412;-1.328;2022-07-11T00:13:51;3.67;;;1.80;;
22363;SDS011;11349;53.412;-1.328;2022-07-11T00:16:17;4.38;;;1.70;;
22363;SDS011;11349;53.412;-1.328;2022-07-11T00:18:43;3.45;;;1.67;;
22363;SDS011;11349;53.412;-1.328;2022-07-11T00:21:10;3.00;;;1.80;;
22363;SDS011;11349;53.412;-1.328;2022-07-11T00:23:36;8.05;;;2.45;;
22363;SDS011;11349;53.412;-1.328;2022-07-11T00:26:02;6.45;;;2.30;;
22363;SDS011;11349;53.412;-1.328;2022-07-11T00:28:28;4.53;;;2.10;;
22363;SDS011;11349;53.412;-1.328;2022-07-11T00:30:54;4.50;;;2.25;;
22363;SDS011;11349;53.412;-1.328;2022-07-11T00:33:19;4.07;;;2.03;;
22363;SDS011;11349;53.412;-1.328;2022-07-11T00:35:45;4.93;;;2.28;;
22363;SDS011;11349;53.412;-1.328;2022-07-11T00:38:11;7.03;;;2.78;;
22363;SDS011;11349;53.412;-1.328;2022-07-11T00:40:38;3.80;;;1.95;;
22363;SDS011;11349;53.412;-1.328;2022-07-11T00:43:03;4.50;;;1.90;;
22363;SDS011;11349;53.412;-1.328;2022-07-11T00:45:29;5.45;;;2.03;;
22363;SDS011;11349;53.412;-1.328;2022-07-11T00:47:55;4.78;;;2.25;;
22363;SDS011;11349;53.412;-1.328;2022-07-11T00:50:22;5.28;;;2.17;;
22363;SDS011;11349;53.412;-1.328;2022-07-11T00:52:49;3.72;;;1.90;;
22363;SDS011;11349;53.412;-1.328;2022-07-11T00:55:16;7.70;;;2.47;;
22363;SDS011;11349;53.412;-1.328;2022-07-11T00:57:43;4.75;;;1.83;;
22363;SDS011;11349;53.412;-1.328;2022-07-11T01:00:09;7.03;;;2.60;;
22363;SDS011;11349;53.412;-1.328;2022-07-11T01:02:36;5.93;;;2.35;;
22363;SDS011;11349;53.412;-1.328;2022-07-11T01:05:02;5.47;;;2.63;;
22363;SDS011;11349;53.412;-1.328;2022-07-11T01:07:29;4.97;;;2.30;;
22363;SDS011;11349;53.412;-1.328;2022-07-11T01:09:55;5.47;;;2.70;;
22363;SDS011;11349;53.412;-1.328;2022-07-11T01:12:21;4.55;;;2.25;;
22363;SDS011;11349;53.412;-1.328;2022-07-11T01:14:53;4.47;;;2.13;;
22363;SDS011;11349;53.412;-1.328;2022-07-11T01:17:19;6.43;;;2.55;;
22363;SDS011;11349;53.412;-1.328;2022-07-11T01:19:45;4.85;;;2.63;;
22363;SDS011;11349;53.412;-1.328;2022-07-11T01:22:13;7.47;;;2.30;;
22363;SDS011;11349;53.412;-1.328;2022-07-11T01:24:40;5.65;;;2.30;;
22363;SDS011;11349;53.412;-1.328;2022-07-11T01:27:07;5.15;;;2.55;;
22363;SDS011;11349;53.412;-1.328;2022-07-11T01:29:34;4.63;;;2.30;;
22363;SDS011;11349;53.412;-1.328;2022-07-11T01:32:00;5.80;;;2.75;;
22363;SDS011;11349;53.412;-1.328;2022-07-11T01:34:26;6.35;;;3.17;;
22363;SDS011;11349;53.412;-1.328;2022-07-11T01:36:51;6.60;;;2.85;;
22363;SDS011;11349;53.412;-1.328;2022-07-11T01:39:17;11.25;;;5.43;;
22363;SDS011;11349;53.412;-1.328;2022-07-11T01:41:43;10.20;;;3.50;;
22363;SDS011;11349;53.412;-1.328;2022-07-11T01:44:09;6.15;;;2.80;;
22363;SDS011;11349;53.412;-1.328;2022-07-11T01:46:35;12.90;;;3.65;;
22363;SDS011;11349;53.412;-1.328;2022-07-11T01:49:00;5.07;;;1.95;;
22363;SDS011;11349;53.412;-1.328;2022-07-11T01:51:27;9.48;;;2.45;;
22363;SDS011;11349;53.412;-1.328;2022-07-11T01:53:53;6.72;;;2.30;;
22363;SDS011;11349;53.412;-1.328;2022-07-11T01:56:21;5.80;;;2.10;;
22363;SDS011;11349;53.412;-1.328;2022-07-11T01:58:47;8.60;;;2.72;;
22363;SDS011;11349;53.412;-1.328;2022-07-11T02:01:13;7.10;;;3.55;;
22363;SDS011;11349;53.412;-1.328;2022-07-11T02:03:39;8.02;;;3.45;;
22363;SDS011;11349;53.412;-1.328;2022-07-11T02:06:05;8.30;;;3.67;;
22363;SDS011;11349;53.412;-1.328;2022-07-11T02:08:31;7.45;;;3.03;;
22363;SDS011;11349;53.412;-1.328;2022-07-11T02:10:57;7.07;;;3.05;;
22363;SDS011;11349;53.412;-1.328;2022-07-11T02:13:23;5.68;;;2.95;;
22363;SDS011;11349;53.412;-1.328;2022-07-11T02:15:49;8.63;;;2.88;;
22363;SDS011;11349;53.412;-1.328;2022-07-11T02:18:16;6.95;;;3.20;;
22363;SDS011;11349;53.412;-1.328;2022-07-11T02:20:43;10.82;;;3.78;;
22363;SDS011;11349;53.412;-1.328;2022-07-11T02:23:14;10.48;;;3.70;;
22363;SDS011;11349;53.412;-1.328;2022-07-11T02:25:40;8.18;;;3.47;;
22363;SDS011;11349;53.412;-1.328;2022-07-11T02:28:06;7.07;;;3.13;;
22363;SDS011;11349;53.412;-1.328;2022-07-11T02:30:33;6.15;;;3.13;;
22363;SDS011;11349;53.412;-1.328;2022-07-11T02:32:59;7.13;;;3.30;;
22363;SDS011;11349;53.412;-1.328;2022-07-11T02:35:25;5.43;;;2.45;;
22363;SDS011;11349;53.412;-1.328;2022-07-11T02:37:51;9.52;;;3.40;;
22363;SDS011;11349;53.412;-1.328;2022-07-11T02:40:17;7.70;;;3.15;;
22363;SDS011;11349;53.412;-1.328;2022-07-11T02:42:43;6.15;;;3.03;;
22363;SDS011;11349;53.412;-1.328;2022-07-11T02:45:09;5.80;;;2.95;;
22363;SDS011;11349;53.412;-1.328;2022-07-11T02:47:38;7.28;;;2.55;;
22363;SDS011;11349;53.412;-1.328;2022-07-11T02:50:06;4.50;;;2.38;;
22363;SDS011;11349;53.412;-1.328;2022-07-11T02:52:33;5.80;;;2.80;;
22363;SDS011;11349;53.412;-1.328;2022-07-11T02:54:59;4.60;;;2.40;;
22363;SDS011;11349;53.412;-1.328;2022-07-11T02:57:25;4.47;;;2.58;;
22363;SDS011;11349;53.412;-1.328;2022-07-11T02:59:51;5.05;;;2.38;;
22363;SDS011;11349;53.412;-1.328;2022-07-11T03:02:16;4.05;;;2.17;;
22363;SDS011;11349;53.412;-1.328;2022-07-11T03:04:42;4.22;;;2.30;;
22363;SDS011;11349;53.412;-1.328;2022-07-11T03:07:08;3.47;;;2.35;;
22363;SDS011;11349;53.412;-1.328;2022-07-11T03:09:34;6.78;;;3.00;;
22363;SDS011;11349;53.412;-1.328;2022-07-11T03:12:00;3.92;;;2.35;;
22363;SDS011;11349;53.412;-1.328;2022-07-11T03:14:26;5.43;;;2.17;;
22363;SDS011;11349;53.412;-1.328;2022-07-11T03:16:52;4.88;;;2.50;;
22363;SDS011;11349;53.412;-1.328;2022-07-11T03:19:18;5.18;;;2.55;;
22363;SDS011;11349;53.412;-1.328;2022-07-11T03:21:43;4.18;;;2.17;;
22363;SDS011;11349;53.412;-1.328;2022-07-11T03:24:09;6.40;;;2.35;;
22363;SDS011;11349;53.412;-1.328;2022-07-11T03:26:35;5.35;;;2.20;;
22363;SDS011;11349;53.412;-1.328;2022-07-11T03:29:00;4.00;;;2.10;;
22363;SDS011;11349;53.412;-1.328;2022-07-11T03:31:26;4.60;;;2.15;;
22363;SDS011;11349;53.412;-1.328;2022-07-11T03:33:52;3.85;;;2.28;;
22363;SDS011;11349;53.412;-1.328;2022-07-11T03:36:17;4.47;;;2.30;;
22363;SDS011;11349;53.412;-1.328;2022-07-11T03:38:43;7.10;;;2.40;;
22363;SDS011;11349;53.412;-1.328;2022-07-11T03:41:09;6.65;;;2.30;;
22363;SDS011;11349;53.412;-1.328;2022-07-11T03:43:34;7.18;;;2.72;;
22363;SDS011;11349;53.412;-1.328;2022-07-11T03:46:00;5.88;;;2.63;;
22363;SDS011;11349;53.412;-1.328;2022-07-11T03:48:25;3.72;;;2.10;;
22363;SDS011;11349;53.412;-1.328;2022-07-11T03:50:51;5.25;;;2.17;;
22363;SDS011;11349;53.412;-1.328;2022-07-11T03:53:17;7.25;;;2.20;;
22363;SDS011;11349;53.412;-1.328;2022-07-11T03:55:43;5.90;;;2.38;;
22363;SDS011;11349;53.412;-1.328;2022-07-11T03:58:09;4.63;;;2.25;;
22363;SDS011;11349;53.412;-1.328;2022-07-11T04:00:34;11.05;;;2.80;;
22363;SDS011;11349;53.412;-1.328;2022-07-11T04:03:00;5.22;;;2.28;;
22363;SDS011;11349;53.412;-1.328;2022-07-11T04:05:26;5.57;;;2.67;;
22363;SDS011;11349;53.412;-1.328;2022-07-11T04:07:52;4.18;;;2.28;;
22363;SDS011;11349;53.412;-1.328;2022-07-11T04:10:18;6.68;;;2.50;;
22363;SDS011;11349;53.412;-1.328;2022-07-11T04:12:43;6.25;;;2.20;;
22363;SDS011;11349;53.412;-1.328;2022-07-11T04:15:10;6.25;;;2.15;;
22363;SDS011;11349;53.412;-1.328;2022-07-11T04:17:36;4.05;;;1.90;;
22363;SDS011;11349;53.412;-1.328;2022-07-11T04:20:03;6.03;;;2.88;;
22363;SDS011;11349;53.412;-1.328;2022-07-11T04:22:29;4.20;;;2.28;;
22363;SDS011;11349;53.412;-1.328;2022-07-11T04:24:55;4.10;;;2.25;;
22363;SDS011;11349;53.412;-1.328;2022-07-11T04:27:21;4.72;;;2.70;;
22363;SDS011;11349;53.412;-1.328;2022-07-11T04:29:46;3.10;;;2.00;;
22363;SDS011;11349;53.412;-1.328;2022-07-11T04:32:12;5.88;;;2.10;;
22363;SDS011;11349;53.412;-1.328;2022-07-11T04:34:38;3.67;;;2.08;;
22363;SDS011;11349;53.412;-1.328;2022-07-11T04:37:04;6.70;;;3.10;;
22363;SDS011;11349;53.412;-1.328;2022-07-11T04:39:30;4.78;;;2.45;;
22363;SDS011;11349;53.412;-1.328;2022-07-11T04:41:57;5.03;;;2.60;;
22363;SDS011;11349;53.412;-1.328;2022-07-11T04:44:23;7.65;;;2.67;;
22363;SDS011;11349;53.412;-1.328;2022-07-11T04:46:49;6.47;;;2.70;;
22363;SDS011;11349;53.412;-1.328;2022-07-11T04:49:15;7.90;;;2.35;;
22363;SDS011;11349;53.412;-1.328;2022-07-11T04:51:40;5.72;;;2.60;;
22363;SDS011;11349;53.412;-1.328;2022-07-11T04:54:06;3.95;;;2.00;;
22363;SDS011;11349;53.412;-1.328;2022-07-11T04:56:33;9.57;;;3.08;;
22363;SDS011;11349;53.412;-1.328;2022-07-11T04:58:59;4.43;;;1.73;;
22363;SDS011;11349;53.412;-1.328;2022-07-11T05:01:25;5.75;;;2.50;;
22363;SDS011;11349;53.412;-1.328;2022-07-11T05:03:54;6.10;;;2.40;;
22363;SDS011;11349;53.412;-1.328;2022-07-11T05:06:19;4.50;;;2.47;;
22363;SDS011;11349;53.412;-1.328;2022-07-11T05:08:45;6.28;;;2.38;;
22363;SDS011;11349;53.412;-1.328;2022-07-11T05:11:11;8.38;;;2.75;;
22363;SDS011;11349;53.412;-1.328;2022-07-11T05:13:36;6.20;;;2.55;;
22363;SDS011;11349;53.412;-1.328;2022-07-11T05:16:02;6.97;;;3.10;;
22363;SDS011;11349;53.412;-1.328;2022-07-11T05:18:28;6.63;;;3.40;;
22363;SDS011;11349;53.412;-1.328;2022-07-11T05:20:54;7.28;;;2.80;;
22363;SDS011;11349;53.412;-1.328;2022-07-11T05:23:20;5.57;;;2.53;;
22363;SDS011;11349;53.412;-1.328;2022-07-11T05:25:46;5.20;;;2.80;;
22363;SDS011;11349;53.412;-1.328;2022-07-11T05:28:12;6.78;;;2.72;;
22363;SDS011;11349;53.412;-1.328;2022-07-11T05:30:37;7.45;;;2.60;;
22363;SDS011;11349;53.412;-1.328;2022-07-11T05:33:03;5.10;;;3.85;;
22363;SDS011;11349;53.412;-1.328;2022-07-11T05:35:29;5.35;;;2.83;;
22363;SDS011;11349;53.412;-1.328;2022-07-11T05:37:54;4.07;;;2.55;;
22363;SDS011;11349;53.412;-1.328;2022-07-11T05:40:20;5.35;;;2.70;;
22363;SDS011;11349;53.412;-1.328;2022-07-11T05:42:46;6.30;;;3.00;;
22363;SDS011;11349;53.412;-1.328;2022-07-11T05:45:12;5.57;;;2.70;;
22363;SDS011;11349;53.412;-1.328;2022-07-11T05:47:38;4.28;;;2.25;;
22363;SDS011;11349;53.412;-1.328;2022-07-11T05:50:04;4.50;;;2.22;;
22363;SDS011;11349;53.412;-1.328;2022-07-11T05:52:30;4.30;;;2.20;;
22363;SDS011;11349;53.412;-1.328;2022-07-11T05:54:55;4.50;;;2.22;;
22363;SDS011;11349;53.412;-1.328;2022-07-11T05:57:21;10.32;;;2.97;;
22363;SDS011;11349;53.412;-1.328;2022-07-11T05:59:47;7.47;;;2.40;;
22363;SDS011;11349;53.412;-1.328;2022-07-11T06:02:13;5.85;;;2.20;;
22363;SDS011;11349;53.412;-1.328;2022-07-11T06:04:38;6.22;;;2.30;;
22363;SDS011;11349;53.412;-1.328;2022-07-11T06:07:04;5.53;;;2.17;;
22363;SDS011;11349;53.412;-1.328;2022-07-11T06:09:30;5.55;;;2.17;;
22363;SDS011;11349;53.412;-1.328;2022-07-11T06:11:56;4.82;;;2.00;;
22363;SDS011;11349;53.412;-1.328;2022-07-11T06:14:22;5.50;;;1.90;;
22363;SDS011;11349;53.412;-1.328;2022-07-11T06:16:49;5.53;;;2.30;;
22363;SDS011;11349;53.412;-1.328;2022-07-11T06:19:16;5.13;;;1.92;;
22363;SDS011;11349;53.412;-1.328;2022-07-11T06:21:41;4.95;;;1.70;;
22363;SDS011;11349;53.412;-1.328;2022-07-11T06:24:07;5.63;;;1.90;;
22363;SDS011;11349;53.412;-1.328;2022-07-11T06:26:33;8.20;;;1.90;;
22363;SDS011;11349;53.412;-1.328;2022-07-11T06:28:59;5.63;;;1.80;;
22363;SDS011;11349;53.412;-1.328;2022-07-11T06:31:24;6.32;;;2.00;;
22363;SDS011;11349;53.412;-1.328;2022-07-11T06:33:50;7.70;;;2.20;;
22363;SDS011;11349;53.412;-1.328;2022-07-11T06:36:28;4.80;;;2.20;;
22363;SDS011;11349;53.412;-1.328;2022-07-11T06:38:54;3.33;;;1.92;;
22363;SDS011;11349;53.412;-1.328;2022-07-11T06:41:19;5.38;;;2.10;;
22363;SDS011;11349;53.412;-1.328;2022-07-11T06:43:46;4.85;;;1.90;;
22363;SDS011;11349;53.412;-1.328;2022-07-11T06:46:13;7.35;;;2.28;;
22363;SDS011;11349;53.412;-1.328;2022-07-11T06:48:40;5.50;;;2.20;;
22363;SDS011;11349;53.412;-1.328;2022-07-11T06:51:06;6.45;;;2.20;;
22363;SDS011;11349;53.412;-1.328;2022-07-11T06:53:32;10.95;;;2.05;;
22363;SDS011;11349;53.412;-1.328;2022-07-11T06:55:58;6.00;;;1.55;;
22363;SDS011;11349;53.412;-1.328;2022-07-11T06:58:24;5.28;;;1.92;;
22363;SDS011;11349;53.412;-1.328;2022-07-11T07:01:02;5.25;;;1.95;;
22363;SDS011;11349;53.412;-1.328;2022-07-11T07:03:29;6.65;;;1.60;;
22363;SDS011;11349;53.412;-1.328;2022-07-11T07:05:57;7.45;;;1.83;;
22363;SDS011;11349;53.412;-1.328;2022-07-11T07:08:24;7.40;;;2.00;;
22363;SDS011;11349;53.412;-1.328;2022-07-11T07:10:50;7.63;;;1.80;;
22363;SDS011;11349;53.412;-1.328;2022-07-11T07:13:17;5.38;;;1.60;;
22363;SDS011;11349;53.412;-1.328;2022-07-11T07:15:43;5.18;;;2.20;;
22363;SDS011;11349;53.412;-1.328;2022-07-11T07:18:08;5.20;;;1.52;;
22363;SDS011;11349;53.412;-1.328;2022-07-11T07:20:34;3.85;;;1.30;;
22363;SDS011;11349;53.412;-1.328;2022-07-11T07:23:00;6.03;;;1.55;;
22363;SDS011;11349;53.412;-1.328;2022-07-11T07:25:25;5.75;;;1.45;;
22363;SDS011;11349;53.412;-1.328;2022-07-11T07:27:52;5.47;;;1.50;;
22363;SDS011;11349;53.412;-1.328;2022-07-11T07:30:17;5.00;;;1.60;;
22363;SDS011;11349;53.412;-1.328;2022-07-11T07:32:43;7.00;;;2.00;;
22363;SDS011;11349;53.412;-1.328;2022-07-11T07:35:09;8.32;;;1.60;;
22363;SDS011;11349;53.412;-1.328;2022-07-11T07:37:35;4.00;;;1.45;;
22363;SDS011;11349;53.412;-1.328;2022-07-11T07:40:00;4.05;;;1.52;;
22363;SDS011;11349;53.412;-1.328;2022-07-11T07:42:26;3.83;;;1.48;;
22363;SDS011;11349;53.412;-1.328;2022-07-11T07:44:52;5.03;;;1.70;;
22363;SDS011;11349;53.412;-1.328;2022-07-11T07:47:17;4.57;;;1.50;;
22363;SDS011;11349;53.412;-1.328;2022-07-11T07:49:43;4.90;;;1.58;;
22363;SDS011;11349;53.412;-1.328;2022-07-11T07:52:09;3.60;;;1.30;;
22363;SDS011;11349;53.412;-1.328;2022-07-11T07:54:34;4.47;;;1.35;;
22363;SDS011;11349;53.412;-1.328;2022-07-11T07:57:00;3.28;;;1.10;;
22363;SDS011;11349;53.412;-1.328;2022-07-11T07:59:26;3.35;;;1.10;;
22363;SDS011;11349;53.412;-1.328;2022-07-11T08:01:51;2.72;;;1.20;;
22363;SDS011;11349;53.412;-1.328;2022-07-11T08:04:17;3.10;;;1.08;;
22363;SDS011;11349;53.412;-1.328;2022-07-11T08:06:43;3.22;;;0.90;;
22363;SDS011;11349;53.412;-1.328;2022-07-11T08:09:09;2.70;;;1.00;;
22363;SDS011;11349;53.412;-1.328;2022-07-11T08:11:35;4.35;;;1.10;;
22363;SDS011;11349;53.412;-1.328;2022-07-11T08:14:01;3.20;;;1.35;;
22363;SDS011;11349;53.412;-1.328;2022-07-11T08:16:29;3.63;;;1.20;;
22363;SDS011;11349;53.412;-1.328;2022-07-11T08:18:56;2.33;;;1.10;;
22363;SDS011;11349;53.412;-1.328;2022-07-11T08:21:26;3.53;;;1.10;;
22363;SDS011;11349;53.412;-1.328;2022-07-11T08:23:52;6.10;;;1.63;;
22363;SDS011;11349;53.412;-1.328;2022-07-11T08:26:19;2.95;;;1.25;;
22363;SDS011;11349;53.412;-1.328;2022-07-11T08:28:45;2.22;;;1.05;;
22363;SDS011;11349;53.412;-1.328;2022-07-11T08:31:11;2.22;;;0.93;;
22363;SDS011;11349;53.412;-1.328;2022-07-11T08:33:36;3.03;;;1.52;;
22363;SDS011;11349;53.412;-1.328;2022-07-11T08:36:02;2.42;;;1.02;;
22363;SDS011;11349;53.412;-1.328;2022-07-11T08:38:28;2.33;;;1.17;;
22363;SDS011;11349;53.412;-1.328;2022-07-11T08:40:54;3.05;;;1.40;;
22363;SDS011;11349;53.412;-1.328;2022-07-11T08:43:22;3.33;;;1.30;;
22363;SDS011;11349;53.412;-1.328;2022-07-11T08:45:52;2.45;;;1.13;;
22363;SDS011;11349;53.412;-1.328;2022-07-11T08:48:19;2.03;;;0.82;;
22363;SDS011;11349;53.412;-1.328;2022-07-11T08:50:46;2.83;;;1.40;;
22363;SDS011;11349;53.412;-1.328;2022-07-11T08:53:12;1.90;;;0.80;;
22363;SDS011;11349;53.412;-1.328;2022-07-11T08:55:38;3.22;;;0.93;;
22363;SDS011;11349;53.412;-1.328;2022-07-11T08:58:05;1.45;;;0.50;;
22363;SDS011;11349;53.412;-1.328;2022-07-11T09:00:33;2.17;;;1.00;;
22363;SDS011;11349;53.412;-1.328;2022-07-11T09:03:00;2.17;;;0.93;;
22363;SDS011;11349;53.412;-1.328;2022-07-11T09:05:27;4.43;;;1.25;;
22363;SDS011;11349;53.412;-1.328;2022-07-11T09:07:53;1.75;;;0.90;;
22363;SDS011;11349;53.412;-1.328;2022-07-11T09:10:19;1.90;;;0.90;;
22363;SDS011;11349;53.412;-1.328;2022-07-11T09:15:52;1.40;;;0.60;;
22363;SDS011;11349;53.412;-1.328;2022-07-11T09:18:35;1.75;;;0.70;;
22363;SDS011;11349;53.412;-1.328;2022-07-11T09:21:09;2.35;;;0.90;;
22363;SDS011;11349;53.412;-1.328;2022-07-11T09:23:55;2.10;;;0.82;;
22363;SDS011;11349;53.412;-1.328;2022-07-11T09:26:44;2.22;;;0.90;;
22363;SDS011;11349;53.412;-1.328;2022-07-11T09:31:46;1.80;;;0.77;;
22363;SDS011;11349;53.412;-1.328;2022-07-11T09:34:16;1.92;;;0.88;;
22363;SDS011;11349;53.412;-1.328;2022-07-11T09:36:47;2.30;;;0.70;;
22363;SDS011;11349;53.412;-1.328;2022-07-11T09:39:16;2.47;;;0.70;;
22363;SDS011;11349;53.412;-1.328;2022-07-11T09:41:46;2.47;;;0.70;;
22363;SDS011;11349;53.412;-1.328;2022-07-11T09:44:17;1.23;;;0.55;;
22363;SDS011;11349;53.412;-1.328;2022-07-11T09:46:45;2.67;;;1.05;;
22363;SDS011;11349;53.412;-1.328;2022-07-11T09:49:12;4.72;;;0.88;;
22363;SDS011;11349;53.412;-1.328;2022-07-11T09:51:39;3.83;;;1.08;;
22363;SDS011;11349;53.412;-1.328;2022-07-11T09:54:06;3.85;;;0.80;;
22363;SDS011;11349;53.412;-1.328;2022-07-11T09:56:43;3.42;;;0.90;;
22363;SDS011;11349;53.412;-1.328;2022-07-11T09:59:10;1.90;;;0.80;;
22363;SDS011;11349;53.412;-1.328;2022-07-11T10:01:38;2.38;;;0.73;;
22363;SDS011;11349;53.412;-1.328;2022-07-11T10:04:05;2.67;;;1.30;;
22363;SDS011;11349;53.412;-1.328;2022-07-11T10:06:32;2.38;;;0.75;;
22363;SDS011;11349;53.412;-1.328;2022-07-11T10:08:57;2.65;;;1.10;;
22363;SDS011;11349;53.412;-1.328;2022-07-11T10:11:23;1.63;;;0.80;;
22363;SDS011;11349;53.412;-1.328;2022-07-11T10:13:49;2.85;;;0.95;;
22363;SDS011;11349;53.412;-1.328;2022-07-11T10:21:54;1.95;;;0.90;;
22363;SDS011;11349;53.412;-1.328;2022-07-11T10:27:44;4.10;;;0.80;;
22363;SDS011;11349;53.412;-1.328;2022-07-11T10:30:45;1.73;;;0.70;;
22363;SDS011;11349;53.412;-1.328;2022-07-11T10:33:22;1.85;;;0.90;;
22363;SDS011;11349;53.412;-1.328;2022-07-11T10:35:48;1.88;;;0.57;;
22363;SDS011;11349;53.412;-1.328;2022-07-11T10:38:16;0.88;;;0.50;;
22363;SDS011;11349;53.412;-1.328;2022-07-11T10:40:50;2.20;;;0.65;;
22363;SDS011;11349;53.412;-1.328;2022-07-11T10:46:08;0.90;;;0.50;;
22363;SDS011;11349;53.412;-1.328;2022-07-11T10:57:08;1.85;;;0.73;;
22363;SDS011;11349;53.412;-1.328;2022-07-11T10:59:59;2.20;;;0.70;;
22363;SDS011;11349;53.412;-1.328;2022-07-11T11:02:28;0.80;;;0.60;;
22363;SDS011;11349;53.412;-1.328;2022-07-11T11:04:55;1.58;;;0.65;;
22363;SDS011;11349;53.412;-1.328;2022-07-11T11:10:44;1.48;;;0.80;;
22363;SDS011;11349;53.412;-1.328;2022-07-11T11:15:40;1.33;;;0.65;;
22363;SDS011;11349;53.412;-1.328;2022-07-11T11:26:23;1.50;;;0.63;;
22363;SDS011;11349;53.412;-1.328;2022-07-11T11:28:56;2.30;;;0.60;;
22363;SDS011;11349;53.412;-1.328;2022-07-11T11:31:28;3.60;;;1.00;;
22363;SDS011;11349;53.412;-1.328;2022-07-11T11:33:55;2.35;;;0.90;;
22363;SDS011;11349;53.412;-1.328;2022-07-11T11:36:22;1.88;;;0.80;;
22363;SDS011;11349;53.412;-1.328;2022-07-11T11:38:49;1.88;;;0.70;;
22363;SDS011;11349;53.412;-1.328;2022-07-11T11:41:22;3.22;;;0.82;;
22363;SDS011;11349;53.412;-1.328;2022-07-11T11:43:49;1.08;;;0.70;;
22363;SDS011;11349;53.412;-1.328;2022-07-11T11:46:15;0.80;;;0.50;;
22363;SDS011;11349;53.412;-1.328;2022-07-11T11:48:41;1.38;;;0.70;;
22363;SDS011;11349;53.412;-1.328;2022-07-11T11:51:11;3.03;;;0.93;;
22363;SDS011;11349;53.412;-1.328;2022-07-11T11:53:41;2.42;;;1.05;;
22363;SDS011;11349;53.412;-1.328;2022-07-11T11:59:10;1.80;;;0.80;;
22363;SDS011;11349;53.412;-1.328;2022-07-11T12:01:38;2.03;;;0.93;;
22363;SDS011;11349;53.412;-1.328;2022-07-11T12:04:06;3.40;;;1.00;;
22363;SDS011;11349;53.412;-1.328;2022-07-11T12:06:34;1.67;;;0.60;;
22363;SDS011;11349;53.412;-1.328;2022-07-11T12:09:26;3.10;;;1.23;;
22363;SDS011;11349;53.412;-1.328;2022-07-11T12:12:11;1.63;;;0.70;;
22363;SDS011;11349;53.412;-1.328;2022-07-11T12:15:00;2.75;;;1.02;;
22363;SDS011;11349;53.412;-1.328;2022-07-11T12:17:26;1.85;;;0.70;;
22363;SDS011;11349;53.412;-1.328;2022-07-11T12:19:54;2.35;;;0.95;;
22363;SDS011;11349;53.412;-1.328;2022-07-11T12:22:21;2.20;;;0.80;;
22363;SDS011;11349;53.412;-1.328;2022-07-11T12:24:47;2.00;;;0.93;;
22363;SDS011;11349;53.412;-1.328;2022-07-11T12:27:18;1.48;;;0.68;;
22363;SDS011;11349;53.412;-1.328;2022-07-11T12:29:44;2.83;;;0.90;;
22363;SDS011;11349;53.412;-1.328;2022-07-11T12:32:15;1.00;;;0.60;;
22363;SDS011;11349;53.412;-1.328;2022-07-11T12:34:43;1.45;;;0.60;;
22363;SDS011;11349;53.412;-1.328;2022-07-11T12:37:13;2.80;;;0.82;;
22363;SDS011;11349;53.412;-1.328;2022-07-11T12:47:37;1.20;;;0.73;;
22363;SDS011;11349;53.412;-1.328;2022-07-11T12:50:23;5.13;;;1.10;;
22363;SDS011;11349;53.412;-1.328;2022-07-11T12:52:54;1.42;;;0.70;;
22363;SDS011;11349;53.412;-1.328;2022-07-11T12:55:22;1.95;;;0.80;;
22363;SDS011;11349;53.412;-1.328;2022-07-11T13:00:37;2.53;;;1.00;;
22363;SDS011;11349;53.412;-1.328;2022-07-11T13:03:05;2.35;;;0.95;;
22363;SDS011;11349;53.412;-1.328;2022-07-11T13:05:50;3.72;;;0.70;;
22363;SDS011;11349;53.412;-1.328;2022-07-11T13:08:26;1.75;;;0.77;;
22363;SDS011;11349;53.412;-1.328;2022-07-11T13:11:13;1.52;;;0.80;;
22363;SDS011;11349;53.412;-1.328;2022-07-11T13:13:49;2.88;;;0.90;;
22363;SDS011;11349;53.412;-1.328;2022-07-11T13:16:15;2.00;;;0.90;;
22363;SDS011;11349;53.412;-1.328;2022-07-11T13:18:42;1.88;;;0.90;;
22363;SDS011;11349;53.412;-1.328;2022-07-11T13:21:09;1.60;;;0.80;;
22363;SDS011;11349;53.412;-1.328;2022-07-11T13:23:35;2.10;;;0.90;;
22363;SDS011;11349;53.412;-1.328;2022-07-11T13:26:01;2.20;;;0.70;;
22363;SDS011;11349;53.412;-1.328;2022-07-11T13:28:28;2.65;;;0.93;;
22363;SDS011;11349;53.412;-1.328;2022-07-11T13:30:54;1.42;;;0.68;;
22363;SDS011;11349;53.412;-1.328;2022-07-11T13:33:20;2.13;;;0.60;;
22363;SDS011;11349;53.412;-1.328;2022-07-11T13:35:47;6.18;;;1.30;;
22363;SDS011;11349;53.412;-1.328;2022-07-11T13:38:14;2.40;;;0.93;;
22363;SDS011;11349;53.412;-1.328;2022-07-11T13:40:41;3.20;;;1.05;;
22363;SDS011;11349;53.412;-1.328;2022-07-11T13:43:07;2.58;;;0.80;;
22363;SDS011;11349;53.412;-1.328;2022-07-11T13:45:34;2.45;;;0.85;;
22363;SDS011;11349;53.412;-1.328;2022-07-11T13:47:59;2.80;;;0.70;;
22363;SDS011;11349;53.412;-1.328;2022-07-11T13:50:26;1.77;;;0.70;;
22363;SDS011;11349;53.412;-1.328;2022-07-11T13:52:52;1.40;;;0.80;;
22363;SDS011;11349;53.412;-1.328;2022-07-11T13:55:19;3.42;;;0.90;;
22363;SDS011;11349;53.412;-1.328;2022-07-11T13:57:54;1.58;;;0.63;;
22363;SDS011;11349;53.412;-1.328;2022-07-11T14:00:24;2.63;;;1.10;;
22363;SDS011;11349;53.412;-1.328;2022-07-11T14:02:50;2.90;;;0.90;;
22363;SDS011;11349;53.412;-1.328;2022-07-11T14:05:17;3.35;;;0.82;;
22363;SDS011;11349;53.412;-1.328;2022-07-11T14:07:44;2.50;;;1.00;;
22363;SDS011;11349;53.412;-1.328;2022-07-11T14:10:10;2.67;;;1.00;;
22363;SDS011;11349;53.412;-1.328;2022-07-11T14:12:36;4.00;;;0.77;;
22363;SDS011;11349;53.412;-1.328;2022-07-11T14:15:02;2.65;;;1.00;;
22363;SDS011;11349;53.412;-1.328;2022-07-11T14:17:28;3.25;;;0.82;;
22363;SDS011;11349;53.412;-1.328;2022-07-11T14:19:54;2.85;;;0.82;;
22363;SDS011;11349;53.412;-1.328;2022-07-11T14:22:22;2.45;;;0.93;;
22363;SDS011;11349;53.412;-1.328;2022-07-11T14:24:48;1.77;;;0.98;;
22363;SDS011;11349;53.412;-1.328;2022-07-11T14:27:14;2.42;;;0.98;;
22363;SDS011;11349;53.412;-1.328;2022-07-11T14:29:41;3.67;;;1.13;;
22363;SDS011;11349;53.412;-1.328;2022-07-11T14:32:08;4.57;;;0.80;;
22363;SDS011;11349;53.412;-1.328;2022-07-11T14:34:35;2.80;;;0.80;;
22363;SDS011;11349;53.412;-1.328;2022-07-11T14:37:00;1.73;;;0.98;;
22363;SDS011;11349;53.412;-1.328;2022-07-11T14:39:28;3.20;;;1.15;;
22363;SDS011;11349;53.412;-1.328;2022-07-11T14:41:53;1.90;;;1.00;;
22363;SDS011;11349;53.412;-1.328;2022-07-11T14:44:20;3.08;;;1.17;;
22363;SDS011;11349;53.412;-1.328;2022-07-11T14:46:45;1.85;;;1.00;;
22363;SDS011;11349;53.412;-1.328;2022-07-11T14:49:11;4.55;;;1.05;;
22363;SDS011;11349;53.412;-1.328;2022-07-11T14:51:38;2.20;;;0.90;;
22363;SDS011;11349;53.412;-1.328;2022-07-11T14:54:04;1.90;;;1.00;;
22363;SDS011;11349;53.412;-1.328;2022-07-11T14:56:30;5.55;;;1.23;;
22363;SDS011;11349;53.412;-1.328;2022-07-11T14:58:57;2.50;;;1.20;;
22363;SDS011;11349;53.412;-1.328;2022-07-11T15:01:23;2.30;;;1.05;;
22363;SDS011;11349;53.412;-1.328;2022-07-11T15:03:48;2.45;;;1.10;;
22363;SDS011;11349;53.412;-1.328;2022-07-11T15:06:15;2.15;;;1.02;;
22363;SDS011;11349;53.412;-1.328;2022-07-11T15:08:42;2.85;;;1.00;;
22363;SDS011;11349;53.412;-1.328;2022-07-11T15:11:27;1.83;;;1.10;;
22363;SDS011;11349;53.412;-1.328;2022-07-11T15:14:11;1.80;;;0.85;;
22363;SDS011;11349;53.412;-1.328;2022-07-11T15:16:39;3.30;;;1.20;;
22363;SDS011;11349;53.412;-1.328;2022-07-11T15:19:06;2.30;;;1.23;;
22363;SDS011;11349;53.412;-1.328;2022-07-11T15:21:32;2.28;;;1.08;;
22363;SDS011;11349;53.412;-1.328;2022-07-11T15:23:59;3.22;;;1.20;;
22363;SDS011;11349;53.412;-1.328;2022-07-11T15:26:25;1.70;;;0.80;;
22363;SDS011;11349;53.412;-1.328;2022-07-11T15:28:51;2.35;;;1.00;;